Time,TemperatureF,DewpointF,PressureIn,WindDirection,WindDirectionDegrees,WindSpeedMPH,WindSpeedGustMPH,Humidity,HourlyPrecipIn,Conditions,Clouds,dailyrainin,SoftwareType,DateUTC
2013-01-04 00:01:00,14.3,11.1,30.22,North,11,0.0,0.0,87,0.00,,,0.00,Wunderground v.1.15,2013-01-04 05:01:00,
2013-01-04 00:05:00,14.5,11.6,30.22,North,11,0.0,0.0,88,0.00,,,0.00,Wunderground v.1.15,2013-01-04 05:05:00,
2013-01-04 00:15:00,15.1,12.7,30.22,North,11,0.0,0.0,90,0.00,,,0.00,Wunderground v.1.15,2013-01-04 05:15:00,
2013-01-04 00:20:00,15.4,13.0,30.22,North,11,0.0,0.0,90,0.00,,,0.00,Wunderground v.1.15,2013-01-04 05:20:00,
2013-01-04 00:25:00,15.6,13.2,30.21,North,11,0.0,0.0,90,0.00,,,0.00,Wunderground v.1.15,2013-01-04 05:25:00,
2013-01-04 00:30:00,15.7,13.3,30.21,North,11,0.0,0.0,90,0.00,,,0.00,Wunderground v.1.15,2013-01-04 05:30:00,
2013-01-04 00:40:00,16.0,13.6,30.20,North,11,0.0,0.0,90,0.00,,,0.00,Wunderground v.1.15,2013-01-04 05:40:00,
2013-01-04 00:45:00,16.1,13.7,30.20,North,11,0.0,0.0,90,0.00,,,0.00,Wunderground v.1.15,2013-01-04 05:45:00,
2013-01-04 00:55:00,16.6,14.4,30.20,North,11,0.0,0.0,91,0.00,,,0.00,Wunderground v.1.15,2013-01-04 05:55:00,
2013-01-04 01:05:00,16.4,13.7,30.20,North,11,0.0,0.0,89,0.00,,,0.00,Wunderground v.1.15,2013-01-04 06:05:00,
2013-01-04 01:15:00,15.3,11.9,30.20,North,11,0.0,0.0,86,0.00,,,0.00,Wunderground v.1.15,2013-01-04 06:15:00,
2013-01-04 01:20:00,14.9,11.5,30.20,North,11,0.0,0.0,86,0.00,,,0.00,Wunderground v.1.15,2013-01-04 06:20:00,
2013-01-04 01:30:00,14.1,10.7,30.20,North,11,0.0,0.0,86,0.00,,,0.00,Wunderground v.1.15,2013-01-04 06:30:00,
2013-01-04 01:40:00,13.5,10.1,30.20,North,11,0.0,0.0,86,0.00,,,0.00,Wunderground v.1.15,2013-01-04 06:40:00,
2013-01-04 01:45:00,13.2,9.5,30.20,North,11,0.0,0.0,85,0.00,,,0.00,Wunderground v.1.15,2013-01-04 06:45:00,
2013-01-04 01:55:00,12.6,8.9,30.20,North,11,0.0,0.0,85,0.00,,,0.00,Wunderground v.1.15,2013-01-04 06:55:00,
2013-01-04 02:00:00,12.3,8.9,30.21,North,11,0.0,0.0,86,0.00,,,0.00,Wunderground v.1.15,2013-01-04 07:00:00,
2013-01-04 02:10:00,11.8,8.4,30.21,North,11,0.0,0.0,86,0.00,,,0.00,Wunderground v.1.15,2013-01-04 07:10:00,
2013-01-04 02:15:00,11.6,8.2,30.21,North,11,0.0,0.0,86,0.00,,,0.00,Wunderground v.1.15,2013-01-04 07:15:00,
2013-01-04 02:25:00,11.5,8.4,30.21,North,11,0.0,0.0,87,0.00,,,0.00,Wunderground v.1.15,2013-01-04 07:25:00,
2013-01-04 02:30:00,11.5,8.6,30.21,North,11,0.0,0.0,88,0.00,,,0.00,Wunderground v.1.15,2013-01-04 07:30:00,
2013-01-04 02:40:00,12.2,9.8,30.21,North,11,0.0,0.0,90,0.00,,,0.00,Wunderground v.1.15,2013-01-04 07:40:00,
2013-01-04 02:50:00,13.0,10.6,30.21,North,11,0.0,0.0,90,0.00,,,0.00,Wunderground v.1.15,2013-01-04 07:50:00,
2013-01-04 03:00:00,15.8,14.1,30.20,North,11,0.0,0.0,93,0.00,,,0.00,Wunderground v.1.15,2013-01-04 08:00:00,
2013-01-04 03:10:00,18.1,16.7,30.20,North,11,0.0,0.0,94,0.00,,,0.00,Wunderground v.1.15,2013-01-04 08:10:00,
2013-01-04 03:20:00,19.6,17.9,30.20,North,11,0.0,0.0,93,0.00,,,0.00,Wunderground v.1.15,2013-01-04 08:20:00,
2013-01-04 03:25:00,20.0,18.3,30.20,North,11,0.0,0.0,93,0.00,,,0.00,Wunderground v.1.15,2013-01-04 08:25:00,
2013-01-04 03:35:00,20.8,18.8,30.19,North,11,0.0,0.0,92,0.00,,,0.00,Wunderground v.1.15,2013-01-04 08:35:00,
2013-01-04 03:45:00,21.5,19.5,30.19,North,11,0.0,0.0,92,0.00,,,0.00,Wunderground v.1.15,2013-01-04 08:45:00,
2013-01-04 03:55:00,21.5,19.0,30.18,North,11,0.0,0.0,90,0.00,,,0.00,Wunderground v.1.15,2013-01-04 08:55:00,
2013-01-04 04:05:00,22.0,19.8,30.18,North,11,0.0,0.0,91,0.00,,,0.00,Wunderground v.1.15,2013-01-04 09:05:00,
2013-01-04 04:10:00,22.3,19.8,30.18,North,11,0.0,0.0,90,0.00,,,0.00,Wunderground v.1.15,2013-01-04 09:10:00,
2013-01-04 04:20:00,22.6,20.1,30.18,North,11,0.0,0.0,90,0.00,,,0.00,Wunderground v.1.15,2013-01-04 09:20:00,
2013-01-04 04:25:00,22.7,19.9,30.19,North,11,0.0,0.0,89,0.00,,,0.00,Wunderground v.1.15,2013-01-04 09:25:00,
2013-01-04 04:35:00,23.0,20.2,30.18,North,11,0.0,0.0,89,0.00,,,0.00,Wunderground v.1.15,2013-01-04 09:35:00,
2013-01-04 04:45:00,23.1,20.1,30.18,North,11,0.0,0.0,88,0.00,,,0.00,Wunderground v.1.15,2013-01-04 09:45:00,
2013-01-04 04:50:00,23.2,20.2,30.18,North,11,0.0,0.0,88,0.00,,,0.00,Wunderground v.1.15,2013-01-04 09:50:00,
2013-01-04 05:00:00,23.5,20.5,30.18,North,11,0.0,0.0,88,0.00,,,0.00,Wunderground v.1.15,2013-01-04 10:00:00,
2013-01-04 05:10:00,23.7,20.7,30.17,North,11,0.0,0.0,88,0.00,,,0.00,Wunderground v.1.15,2013-01-04 10:10:00,
2013-01-04 05:20:00,23.9,20.9,30.17,North,11,0.0,0.0,88,0.00,,,0.00,Wunderground v.1.15,2013-01-04 10:20:00,
2013-01-04 05:25:00,24.0,20.7,30.17,North,11,0.0,0.0,87,0.00,,,0.00,Wunderground v.1.15,2013-01-04 10:25:00,
2013-01-04 05:35:00,24.2,20.9,30.17,North,11,0.0,0.0,87,0.00,,,0.00,Wunderground v.1.15,2013-01-04 10:35:00,
2013-01-04 05:40:00,24.2,20.9,30.17,North,11,0.0,0.0,87,0.00,,,0.00,Wunderground v.1.15,2013-01-04 10:40:00,
2013-01-04 05:50:00,24.2,20.9,30.17,North,11,0.0,0.0,87,0.00,,,0.00,Wunderground v.1.15,2013-01-04 10:50:00,
2013-01-04 06:01:00,24.1,20.8,30.17,North,11,0.0,0.0,87,0.00,,,0.00,Wunderground v.1.15,2013-01-04 11:01:00,
2013-01-04 06:10:00,24.0,20.7,30.17,North,11,0.0,0.0,87,0.00,,,0.00,Wunderground v.1.15,2013-01-04 11:10:00,
2013-01-04 06:15:00,23.9,20.6,30.16,North,11,0.0,0.0,87,0.00,,,0.00,Wunderground v.1.15,2013-01-04 11:15:00,
2013-01-04 06:25:00,23.7,20.4,30.17,North,11,0.0,0.0,87,0.00,,,0.00,Wunderground v.1.15,2013-01-04 11:25:00,
2013-01-04 06:35:00,23.5,20.2,30.17,North,11,0.0,0.0,87,0.00,,,0.00,Wunderground v.1.15,2013-01-04 11:35:00,
2013-01-04 06:40:00,23.4,20.1,30.17,North,11,0.0,0.0,87,0.00,,,0.00,Wunderground v.1.15,2013-01-04 11:40:00,
2013-01-04 06:50:00,23.3,20.0,30.17,North,11,0.0,0.0,87,0.00,,,0.00,Wunderground v.1.15,2013-01-04 11:50:00,
2013-01-04 07:00:00,23.1,20.1,30.17,North,11,0.0,0.0,88,0.00,,,0.00,Wunderground v.1.15,2013-01-04 12:00:00,
2013-01-04 07:05:00,23.0,20.0,30.17,North,11,0.0,0.0,88,0.00,,,0.00,Wunderground v.1.15,2013-01-04 12:05:00,
2013-01-04 07:15:00,22.8,20.0,30.17,North,11,0.0,0.0,89,0.00,,,0.00,Wunderground v.1.15,2013-01-04 12:15:00,
2013-01-04 07:25:00,22.6,19.8,30.17,North,11,0.0,0.0,89,0.00,,,0.00,Wunderground v.1.15,2013-01-04 12:25:00,
2013-01-04 07:30:00,22.6,19.8,30.17,North,11,0.0,0.0,89,0.00,,,0.00,Wunderground v.1.15,2013-01-04 12:30:00,
2013-01-04 07:40:00,22.6,20.1,30.17,North,11,0.0,0.0,90,0.00,,,0.00,Wunderground v.1.15,2013-01-04 12:40:00,
2013-01-04 07:45:00,22.7,20.2,30.17,North,11,0.0,0.0,90,0.00,,,0.00,Wunderground v.1.15,2013-01-04 12:45:00,
2013-01-04 07:55:00,23.3,21.1,30.17,North,11,0.0,0.0,91,0.00,,,0.00,Wunderground v.1.15,2013-01-04 12:55:00,
2013-01-04 08:05:00,25.0,22.2,30.17,North,11,0.0,0.0,89,0.00,,,0.00,Wunderground v.1.15,2013-01-04 13:05:00,
2013-01-04 08:15:00,25.9,22.6,30.16,North,11,0.0,0.0,87,0.00,,,0.00,Wunderground v.1.15,2013-01-04 13:15:00,
2013-01-04 08:20:00,26.8,22.9,30.16,North,11,0.0,0.0,85,0.00,,,0.00,Wunderground v.1.15,2013-01-04 13:20:00,
2013-01-04 08:30:00,27.4,22.9,30.16,North,11,0.0,0.0,83,0.00,,,0.00,Wunderground v.1.15,2013-01-04 13:30:00,
2013-01-04 08:40:00,27.6,22.8,30.16,North,11,0.0,0.0,82,0.00,,,0.00,Wunderground v.1.15,2013-01-04 13:40:00,
2013-01-04 08:45:00,27.7,22.6,30.16,North,11,0.0,0.0,81,0.00,,,0.00,Wunderground v.1.15,2013-01-04 13:45:00,
2013-01-04 08:55:00,28.4,22.4,30.15,North,11,0.0,0.0,78,0.00,,,0.00,Wunderground v.1.15,2013-01-04 13:55:00,
2013-01-04 09:00:00,28.7,22.4,30.15,North,11,0.0,0.0,77,0.00,,,0.00,Wunderground v.1.15,2013-01-04 14:00:00,
2013-01-04 09:10:00,29.2,21.9,30.15,North,11,0.0,0.0,74,0.00,,,0.00,Wunderground v.1.15,2013-01-04 14:10:00,
2013-01-04 09:15:00,29.2,22.6,30.15,North,11,0.0,0.0,76,0.00,,,0.00,Wunderground v.1.15,2013-01-04 14:15:00,
2013-01-04 09:25:00,29.4,22.1,30.15,North,11,0.0,0.0,74,0.00,,,0.00,Wunderground v.1.15,2013-01-04 14:25:00,
2013-01-04 09:35:00,29.7,21.8,30.15,North,11,0.0,0.0,72,0.00,,,0.00,Wunderground v.1.15,2013-01-04 14:35:00,
2013-01-04 09:45:00,30.2,21.6,30.15,North,11,0.0,0.0,70,0.00,,,0.00,Wunderground v.1.15,2013-01-04 14:45:00,
2013-01-04 09:50:00,30.5,21.9,30.14,North,11,0.0,0.0,70,0.00,,,0.00,Wunderground v.1.15,2013-01-04 14:50:00,
2013-01-04 10:00:00,31.1,21.8,30.15,North,11,0.0,0.0,68,0.00,,,0.00,Wunderground v.1.15,2013-01-04 15:00:00,
2013-01-04 10:05:00,31.2,21.5,30.14,North,11,0.0,0.0,67,0.00,,,0.00,Wunderground v.1.15,2013-01-04 15:05:00,
2013-01-04 10:15:00,31.5,21.8,30.13,North,11,0.0,0.0,67,0.00,,,0.00,Wunderground v.1.15,2013-01-04 15:15:00,
2013-01-04 10:25:00,32.2,21.7,30.13,North,11,0.0,0.0,65,0.00,,,0.00,Wunderground v.1.15,2013-01-04 15:25:00,
2013-01-04 10:35:00,32.6,21.8,30.12,North,11,0.0,0.0,64,0.00,,,0.00,Wunderground v.1.15,2013-01-04 15:35:00,
2013-01-04 10:45:00,33.0,21.4,30.11,North,11,0.0,0.0,62,0.00,,,0.00,Wunderground v.1.15,2013-01-04 15:45:00,
2013-01-04 10:50:00,33.4,22.1,30.11,North,11,0.0,0.0,63,0.00,,,0.00,Wunderground v.1.15,2013-01-04 15:50:00,
2013-01-04 11:00:00,33.9,21.9,30.09,North,11,0.0,0.0,61,0.00,,,0.00,Wunderground v.1.15,2013-01-04 16:00:00,
2013-01-04 11:05:00,34.3,22.6,30.09,North,11,0.0,0.0,62,0.00,,,0.00,Wunderground v.1.15,2013-01-04 16:05:00,
2013-01-04 11:15:00,34.4,21.5,30.08,North,11,0.0,0.0,59,0.00,,,0.00,Wunderground v.1.15,2013-01-04 16:15:00,
2013-01-04 11:20:00,34.4,21.9,30.07,North,11,0.0,0.0,60,0.00,,,0.00,Wunderground v.1.15,2013-01-04 16:20:00,
2013-01-04 11:30:00,34.1,21.7,30.07,North,11,0.0,0.0,60,0.00,,,0.00,Wunderground v.1.15,2013-01-04 16:30:00,
2013-01-04 11:35:00,34.1,22.0,30.06,North,11,0.0,0.0,61,0.00,,,0.00,Wunderground v.1.15,2013-01-04 16:35:00,
2013-01-04 11:45:00,34.4,21.5,30.06,North,11,0.0,0.0,59,0.00,,,0.00,Wunderground v.1.15,2013-01-04 16:45:00,
2013-01-04 11:55:00,35.0,22.1,30.05,North,11,0.0,0.0,59,0.00,,,0.00,Wunderground v.1.15,2013-01-04 16:55:00,
2013-01-04 12:00:00,35.6,22.3,30.04,North,11,0.0,0.0,58,0.00,,,0.00,Wunderground v.1.15,2013-01-04 17:00:00,
2013-01-04 12:10:00,36.5,22.7,30.03,North,11,0.0,0.0,57,0.00,,,0.00,Wunderground v.1.15,2013-01-04 17:10:00,
2013-01-04 12:15:00,36.8,22.6,30.03,North,11,0.0,0.0,56,0.00,,,0.00,Wunderground v.1.15,2013-01-04 17:15:00,
2013-01-04 12:25:00,37.3,22.6,30.02,North,11,0.0,0.0,55,0.00,,,0.01,Wunderground v.1.15,2013-01-04 17:25:00,
2013-01-04 12:30:00,37.3,22.2,30.03,North,11,0.0,0.0,54,0.00,,,0.01,Wunderground v.1.15,2013-01-04 17:30:00,
2013-01-04 12:40:00,37.2,22.1,30.02,North,11,0.0,0.0,54,0.00,,,0.01,Wunderground v.1.15,2013-01-04 17:40:00,
2013-01-04 12:50:00,37.1,22.0,30.02,North,11,0.0,0.0,54,0.00,,,0.01,Wunderground v.1.15,2013-01-04 17:50:00,
2013-01-04 12:55:00,37.2,22.1,30.02,North,11,0.0,0.0,54,0.00,,,0.01,Wunderground v.1.15,2013-01-04 17:55:00,
2013-01-04 13:00:00,37.1,21.5,30.02,North,11,0.0,0.0,53,0.00,,,0.01,Wunderground v.1.15,2013-01-04 18:00:00,
2013-01-04 13:10:00,36.9,21.8,30.00,North,11,0.0,0.0,54,0.00,,,0.01,Wunderground v.1.15,2013-01-04 18:10:00,
2013-01-04 13:20:00,36.6,21.5,30.00,North,11,0.0,0.0,54,0.00,,,0.01,Wunderground v.1.15,2013-01-04 18:20:00,
2013-01-04 13:25:00,36.5,21.4,30.00,North,11,0.0,0.0,54,0.00,,,0.01,Wunderground v.1.15,2013-01-04 18:25:00,
2013-01-04 13:35:00,36.2,21.1,30.00,North,11,0.0,0.0,54,0.00,,,0.02,Wunderground v.1.15,2013-01-04 18:35:00,
2013-01-04 13:45:00,36.1,21.5,30.00,North,11,0.0,0.0,55,0.00,,,0.02,Wunderground v.1.15,2013-01-04 18:45:00,
2013-01-04 13:55:00,36.1,21.5,30.01,North,11,0.0,0.0,55,0.00,,,0.02,Wunderground v.1.15,2013-01-04 18:55:00,
2013-01-04 14:05:00,36.0,21.4,30.00,North,11,0.0,0.0,55,0.00,,,0.02,Wunderground v.1.15,2013-01-04 19:05:00,
2013-01-04 14:15:00,36.0,22.2,30.01,North,11,0.0,0.0,57,0.00,,,0.02,Wunderground v.1.15,2013-01-04 19:15:00,
2013-01-04 14:25:00,36.0,21.8,30.01,North,11,0.0,0.0,56,0.00,,,0.02,Wunderground v.1.15,2013-01-04 19:25:00,
2013-01-04 14:35:00,36.1,21.9,30.00,North,11,0.0,0.0,56,0.00,,,0.02,Wunderground v.1.15,2013-01-04 19:35:00,
2013-01-04 14:45:00,36.2,21.6,30.00,North,11,0.0,0.0,55,0.00,,,0.03,Wunderground v.1.15,2013-01-04 19:45:00,
2013-01-04 14:50:00,36.2,22.4,30.01,North,11,0.0,0.0,57,0.00,,,0.03,Wunderground v.1.15,2013-01-04 19:50:00,
2013-01-04 15:00:00,36.2,22.0,30.01,North,11,0.0,0.0,56,0.00,,,0.03,Wunderground v.1.15,2013-01-04 20:00:00,
2013-01-04 15:10:00,36.4,21.8,30.01,North,11,0.0,0.0,55,0.00,,,0.03,Wunderground v.1.15,2013-01-04 20:10:00,
2013-01-04 15:20:00,36.3,21.7,30.01,North,11,0.0,0.0,55,0.00,,,0.03,Wunderground v.1.15,2013-01-04 20:20:00,
2013-01-04 15:25:00,36.2,21.6,30.01,North,11,0.0,0.0,55,0.00,,,0.03,Wunderground v.1.15,2013-01-04 20:25:00,
2013-01-04 15:35:00,36.0,21.8,30.01,North,11,0.0,0.0,56,0.00,,,0.03,Wunderground v.1.15,2013-01-04 20:35:00,
2013-01-04 15:45:00,35.7,21.9,30.02,North,11,0.0,0.0,57,0.00,,,0.03,Wunderground v.1.15,2013-01-04 20:45:00,
2013-01-04 15:55:00,35.3,22.0,30.02,North,11,0.0,0.0,58,0.00,,,0.04,Wunderground v.1.15,2013-01-04 20:55:00,
2013-01-04 16:00:00,35.2,21.9,30.02,North,11,0.0,0.0,58,0.00,,,0.04,Wunderground v.1.15,2013-01-04 21:00:00,
2013-01-04 16:10:00,34.9,22.0,30.02,North,11,0.0,0.0,59,0.00,,,0.04,Wunderground v.1.15,2013-01-04 21:10:00,
2013-01-04 16:20:00,34.7,21.8,30.02,North,11,0.0,0.0,59,0.00,,,0.04,Wunderground v.1.15,2013-01-04 21:20:00,
2013-01-04 16:25:00,34.6,22.1,30.01,North,11,0.0,0.0,60,0.00,,,0.04,Wunderground v.1.15,2013-01-04 21:25:00,
2013-01-04 16:35:00,34.4,22.7,30.02,North,11,0.0,0.0,62,0.00,,,0.04,Wunderground v.1.15,2013-01-04 21:35:00,
2013-01-04 16:40:00,34.1,22.0,30.02,North,11,0.0,0.0,61,0.00,,,0.04,Wunderground v.1.15,2013-01-04 21:40:00,
2013-01-04 16:50:00,34.1,21.7,30.02,North,11,0.0,0.0,60,0.00,,,0.04,Wunderground v.1.15,2013-01-04 21:50:00,
2013-01-04 17:00:00,33.6,22.3,30.02,North,11,0.0,0.0,63,0.00,,,0.04,Wunderground v.1.15,2013-01-04 22:00:00,
2013-01-04 17:10:00,33.5,21.9,30.03,North,11,0.0,0.0,62,0.00,,,0.04,Wunderground v.1.15,2013-01-04 22:10:00,
2013-01-04 17:15:00,33.5,22.2,30.02,North,11,0.0,0.0,63,0.00,,,0.04,Wunderground v.1.15,2013-01-04 22:15:00,
2013-01-04 17:25:00,33.0,22.9,30.03,North,11,0.0,0.0,66,0.00,,,0.04,Wunderground v.1.15,2013-01-04 22:25:00,
2013-01-04 17:35:00,33.2,22.0,30.03,North,11,0.0,0.0,63,0.00,,,0.04,Wunderground v.1.15,2013-01-04 22:35:00,
2013-01-04 17:40:00,33.5,21.9,30.03,North,11,0.0,0.0,62,0.00,,,0.04,Wunderground v.1.15,2013-01-04 22:40:00,
2013-01-04 17:50:00,33.7,22.4,30.03,North,11,0.0,0.0,63,0.00,,,0.04,Wunderground v.1.15,2013-01-04 22:50:00,
2013-01-04 17:55:00,33.7,22.1,30.03,North,11,0.0,0.0,62,0.00,,,0.04,Wunderground v.1.15,2013-01-04 22:55:00,
2013-01-04 18:00:00,33.6,22.3,30.03,North,11,0.0,0.0,63,0.00,,,0.04,Wunderground v.1.15,2013-01-04 23:00:00,
2013-01-04 18:05:00,33.3,22.1,30.04,North,11,0.0,0.0,63,0.00,,,0.04,Wunderground v.1.15,2013-01-04 23:05:00,
2013-01-04 18:15:00,32.7,22.2,30.04,North,11,0.0,0.0,65,0.00,,,0.04,Wunderground v.1.15,2013-01-04 23:15:00,
2013-01-04 18:20:00,32.1,22.0,30.04,North,11,0.0,0.0,66,0.00,,,0.04,Wunderground v.1.15,2013-01-04 23:20:00,
2013-01-04 18:30:00,31.0,21.7,30.04,North,11,0.0,0.0,68,0.00,,,0.04,Wunderground v.1.15,2013-01-04 23:30:00,
2013-01-04 18:40:00,30.3,21.7,30.04,North,11,0.0,0.0,70,0.00,,,0.04,Wunderground v.1.15,2013-01-04 23:40:00,
2013-01-04 18:45:00,30.2,23.5,30.04,North,11,0.0,0.0,76,0.00,,,0.04,Wunderground v.1.15,2013-01-04 23:45:00,
2013-01-04 18:50:00,30.1,21.5,30.04,North,11,0.0,0.0,70,0.00,,,0.04,Wunderground v.1.15,2013-01-04 23:50:00,
2013-01-04 19:00:00,30.3,22.0,30.04,North,11,0.0,0.0,71,0.00,,,0.04,Wunderground v.1.15,2013-01-05 00:00:00,
2013-01-04 19:05:00,30.9,21.9,30.04,North,11,0.0,0.0,69,0.00,,,0.04,Wunderground v.1.15,2013-01-05 00:05:00,
2013-01-04 19:15:00,31.4,22.4,30.05,North,11,0.0,0.0,69,0.00,,,0.04,Wunderground v.1.15,2013-01-05 00:15:00,
2013-01-04 19:25:00,31.9,21.8,30.05,North,11,0.0,0.0,66,0.00,,,0.04,Wunderground v.1.15,2013-01-05 00:25:00,
2013-01-04 19:35:00,32.4,21.2,30.04,North,11,0.0,0.0,63,0.00,,,0.04,Wunderground v.1.15,2013-01-05 00:35:00,
2013-01-04 19:40:00,32.8,20.8,30.04,North,11,0.0,0.0,61,0.00,,,0.04,Wunderground v.1.15,2013-01-05 00:40:00,
2013-01-04 19:50:00,32.9,20.5,30.04,North,11,0.0,0.0,60,0.00,,,0.04,Wunderground v.1.15,2013-01-05 00:50:00,
2013-01-04 19:55:00,32.6,21.0,30.04,North,11,0.0,0.0,62,0.00,,,0.04,Wunderground v.1.15,2013-01-05 00:55:00,
2013-01-04 20:00:00,32.4,20.4,30.05,North,11,0.0,0.0,61,0.00,,,0.04,Wunderground v.1.15,2013-01-05 01:00:00,
2013-01-04 20:10:00,31.7,21.3,30.04,North,11,0.0,0.0,65,0.00,,,0.04,Wunderground v.1.15,2013-01-05 01:10:00,
2013-01-04 20:15:00,31.3,20.2,30.04,North,11,0.0,0.0,63,0.00,,,0.04,Wunderground v.1.15,2013-01-05 01:15:00,
2013-01-04 20:25:00,31.5,20.3,30.05,North,11,0.0,0.0,63,0.00,,,0.04,Wunderground v.1.15,2013-01-05 01:25:00,
2013-01-04 20:30:00,31.8,20.3,30.04,North,11,0.0,0.0,62,0.00,,,0.04,Wunderground v.1.15,2013-01-05 01:30:00,
2013-01-04 20:40:00,31.6,20.1,30.05,North,11,0.0,0.0,62,0.00,,,0.04,Wunderground v.1.15,2013-01-05 01:40:00,
2013-01-04 20:45:00,31.4,20.6,30.04,North,11,0.0,0.0,64,0.00,,,0.04,Wunderground v.1.15,2013-01-05 01:45:00,
2013-01-04 20:55:00,31.2,20.8,30.04,North,11,0.0,0.0,65,0.00,,,0.04,Wunderground v.1.15,2013-01-05 01:55:00,
2013-01-04 21:00:00,31.5,20.3,30.04,North,11,0.0,0.0,63,0.00,,,0.04,Wunderground v.1.15,2013-01-05 02:00:00,
2013-01-04 21:10:00,31.5,20.7,30.04,North,11,0.0,0.0,64,0.00,,,0.04,Wunderground v.1.15,2013-01-05 02:10:00,
2013-01-04 21:15:00,31.4,20.2,30.04,North,11,0.0,0.0,63,0.00,,,0.04,Wunderground v.1.15,2013-01-05 02:15:00,
2013-01-04 21:25:00,31.9,21.1,30.04,North,11,0.0,0.0,64,0.00,,,0.04,Wunderground v.1.15,2013-01-05 02:25:00,
2013-01-04 21:35:00,31.7,20.9,30.04,North,11,0.0,0.0,64,0.00,,,0.04,Wunderground v.1.15,2013-01-05 02:35:00,
2013-01-04 21:40:00,31.7,20.5,30.04,North,11,0.0,0.0,63,0.00,,,0.04,Wunderground v.1.15,2013-01-05 02:40:00,
2013-01-04 21:50:00,32.4,20.4,30.05,North,11,0.0,0.0,61,0.00,,,0.04,Wunderground v.1.15,2013-01-05 02:50:00,
2013-01-04 22:00:00,32.8,20.4,30.04,North,11,0.0,0.0,60,0.00,,,0.04,Wunderground v.1.15,2013-01-05 03:00:00,
2013-01-04 22:10:00,32.9,20.9,30.04,North,11,0.0,0.0,61,0.00,,,0.04,Wunderground v.1.15,2013-01-05 03:10:00,
2013-01-04 22:20:00,32.8,21.2,30.04,North,11,0.0,0.0,62,0.00,,,0.04,Wunderground v.1.15,2013-01-05 03:20:00,
2013-01-04 22:25:00,32.7,21.1,30.04,North,11,0.0,0.0,62,0.00,,,0.04,Wunderground v.1.15,2013-01-05 03:25:00,
2013-01-04 22:30:00,32.7,21.1,30.04,North,11,0.0,0.0,62,0.00,,,0.04,Wunderground v.1.15,2013-01-05 03:30:00,
2013-01-04 22:40:00,32.5,21.3,30.04,North,11,0.0,0.0,63,0.00,,,0.04,Wunderground v.1.15,2013-01-05 03:40:00,
2013-01-04 22:45:00,32.5,21.3,30.04,North,11,0.0,0.0,63,0.00,,,0.04,Wunderground v.1.15,2013-01-05 03:45:00,
2013-01-04 22:55:00,32.5,21.7,30.04,North,11,0.0,0.0,64,0.00,,,0.04,Wunderground v.1.15,2013-01-05 03:55:00,
2013-01-04 23:00:00,32.4,21.6,30.05,North,11,0.0,0.0,64,0.00,,,0.04,Wunderground v.1.15,2013-01-05 04:00:00,
2013-01-04 23:10:00,32.5,22.0,30.05,North,11,0.0,0.0,65,0.00,,,0.04,Wunderground v.1.15,2013-01-05 04:10:00,
2013-01-04 23:20:00,32.5,22.0,30.04,North,11,0.0,0.0,65,0.00,,,0.04,Wunderground v.1.15,2013-01-05 04:20:00,
2013-01-04 23:25:00,32.6,22.1,30.04,North,11,0.0,0.0,65,0.00,,,0.04,Wunderground v.1.15,2013-01-05 04:25:00,
2013-01-04 23:35:00,32.6,21.8,30.05,North,11,0.0,0.0,64,0.00,,,0.04,Wunderground v.1.15,2013-01-05 04:35:00,
2013-01-04 23:45:00,32.5,22.0,30.04,North,11,0.0,0.0,65,0.00,,,0.04,Wunderground v.1.15,2013-01-05 04:45:00,
2013-01-04 23:55:00,32.5,22.0,30.04,North,11,0.0,0.0,65,0.00,,,0.04,Wunderground v.1.15,2013-01-05 04:55:00,